createdAt,value
2019-05-29T00:01:19.874Z,52.82
2019-05-29T00:03:47.503Z,53.34
2019-05-29T00:06:18.595Z,53.60
2019-05-29T00:08:49.154Z,53.89
2019-05-29T00:11:19.217Z,54.00
2019-05-29T00:13:49.160Z,53.49
2019-05-29T00:16:19.891Z,53.49
2019-05-29T00:18:50.077Z,53.29
2019-05-29T00:21:20.228Z,53.42
2019-05-29T00:23:50.725Z,53.49
2019-05-29T00:26:20.768Z,53.49
2019-05-29T00:28:51.121Z,52.59
2019-05-29T00:31:21.393Z,52.53
2019-05-29T00:33:51.745Z,52.59
2019-05-29T00:36:21.975Z,52.79
2019-05-29T00:38:51.963Z,52.82
2019-05-29T00:41:22.098Z,52.46
2019-05-29T00:43:53.089Z,52.78
2019-05-29T00:46:23.539Z,52.78
2019-05-29T00:48:53.541Z,52.22
2019-05-29T00:51:24.184Z,52.08
2019-05-29T00:53:54.136Z,52.44
2019-05-29T00:56:24.101Z,52.17
2019-05-29T00:58:54.607Z,51.93
2019-05-29T01:01:24.806Z,51.93
2019-05-29T01:03:54.782Z,51.51
2019-05-29T01:06:27.857Z,51.21
2019-05-29T01:08:57.939Z,50.53
2019-05-29T01:11:27.807Z,51.21
2019-05-29T01:13:57.843Z,50.96
2019-05-29T01:16:28.090Z,51.31
2019-05-29T01:19:18.081Z,51.33
2019-05-29T01:21:48.145Z,50.95
2019-05-29T01:24:18.403Z,51.05
2019-05-29T01:26:48.480Z,50.93
2019-05-29T01:29:19.437Z,50.68
2019-05-29T01:31:49.513Z,50.61
2019-05-29T01:34:19.796Z,50.07
2019-05-29T01:36:50.074Z,50.33
2019-05-29T01:39:21.604Z,49.95
2019-05-29T01:41:51.285Z,50.68
2019-05-29T01:44:21.508Z,50.40
2019-05-29T01:46:56.525Z,50.24
2019-05-29T01:49:27.931Z,50.51
2019-05-29T01:51:58.390Z,50.51
2019-05-29T01:54:28.342Z,50.61
2019-05-29T01:56:58.155Z,50.83
2019-05-29T01:59:28.144Z,51.08
2019-05-29T02:01:58.664Z,51.44
2019-05-29T02:04:29.048Z,51.38
2019-05-29T02:06:59.284Z,51.85
2019-05-29T02:09:29.432Z,51.85
2019-05-29T02:11:59.717Z,51.80
2019-05-29T02:14:30.693Z,51.80
2019-05-29T02:17:06.456Z,50.58
2019-05-29T02:19:36.265Z,50.58
2019-05-29T02:22:06.763Z,51.17
2019-05-29T02:24:37.495Z,51.22
2019-05-29T02:27:07.551Z,51.22
2019-05-29T02:29:38.025Z,51.38
2019-05-29T02:32:08.561Z,51.45
2019-05-29T02:34:39.543Z,51.24
2019-05-29T02:37:09.912Z,51.05
2019-05-29T02:39:44.494Z,51.05
2019-05-29T02:42:14.567Z,50.92
2019-05-29T02:44:44.693Z,50.92
2019-05-29T02:47:15.940Z,50.70
2019-05-29T02:49:46.036Z,50.25
2019-05-29T02:52:15.783Z,51.05
2019-05-29T02:54:45.771Z,51.05
2019-05-29T02:57:16.098Z,50.77
2019-05-29T02:59:46.063Z,50.69
2019-05-29T03:02:16.210Z,50.86
2019-05-29T03:04:46.240Z,50.84
2019-05-29T03:07:16.363Z,50.49
2019-05-29T03:09:46.603Z,50.49
2019-05-29T03:12:16.646Z,50.65
2019-05-29T03:14:46.646Z,50.91
2019-05-29T03:17:16.681Z,50.51
2019-05-29T03:19:47.009Z,50.71
2019-05-29T03:22:17.233Z,50.67
2019-05-29T03:24:47.188Z,50.33
2019-05-29T03:27:17.544Z,50.29
2019-05-29T03:29:51.960Z,50.32
2019-05-29T03:32:22.130Z,50.17
2019-05-29T03:34:51.869Z,50.21
2019-05-29T03:37:21.985Z,50.21
2019-05-29T03:39:52.235Z,49.74
2019-05-29T03:42:23.639Z,49.78
2019-05-29T03:44:55.562Z,49.99
2019-05-29T03:47:26.939Z,50.01
2019-05-29T03:49:58.078Z,50.01
2019-05-29T03:52:30.072Z,50.50
2019-05-29T03:55:00.317Z,50.69
2019-05-29T03:57:31.783Z,50.93
2019-05-29T04:00:02.196Z,51.32
2019-05-29T04:02:35.506Z,51.55
2019-05-29T04:05:06.696Z,51.56
2019-05-29T04:07:38.170Z,51.51
2019-05-29T04:10:09.174Z,51.57
2019-05-29T04:12:39.662Z,51.72
2019-05-29T04:15:11.222Z,51.73
2019-05-29T04:17:44.275Z,51.98
2019-05-29T04:20:14.335Z,52.48
2019-05-29T04:22:46.944Z,52.51
2019-05-29T04:25:18.370Z,52.64
2019-05-29T04:27:51.104Z,52.59
2019-05-29T04:30:21.462Z,52.51
2019-05-29T04:32:51.183Z,52.51
2019-05-29T04:35:21.599Z,52.45
2019-05-29T04:37:52.713Z,52.50
2019-05-29T04:40:22.746Z,52.64
2019-05-29T04:42:52.595Z,52.69
2019-05-29T04:45:26.606Z,52.75
2019-05-29T04:47:56.729Z,52.38
2019-05-29T04:50:29.003Z,52.42
2019-05-29T04:52:59.160Z,52.29
2019-05-29T04:55:29.256Z,52.09
2019-05-29T04:57:59.073Z,51.95
2019-05-29T05:00:29.284Z,51.87
2019-05-29T05:03:00.689Z,51.95
2019-05-29T05:05:31.186Z,52.16
2019-05-29T05:08:02.130Z,51.94
2019-05-29T05:10:40.850Z,52.12
2019-05-29T05:13:11.249Z,51.93
2019-05-29T05:15:43.918Z,51.53
2019-05-29T05:18:15.088Z,51.43
2019-05-29T05:20:45.903Z,51.28
2019-05-29T05:23:18.366Z,51.02
2019-05-29T05:25:49.325Z,49.90
2019-05-29T05:28:19.114Z,50.08
2019-05-29T05:30:49.361Z,50.24
2019-05-29T05:33:22.015Z,49.86
2019-05-29T05:35:51.968Z,49.90
2019-05-29T05:38:21.720Z,49.67
2019-05-29T05:40:52.991Z,49.78
2019-05-29T05:43:24.934Z,49.57
2019-05-29T05:45:56.209Z,49.85
2019-05-29T05:48:26.133Z,49.74
2019-05-29T05:50:55.674Z,49.27
2019-05-29T05:53:25.534Z,49.58
2019-05-29T05:55:55.196Z,49.86
2019-05-29T05:58:25.463Z,50.56
2019-05-29T06:00:55.427Z,50.92
2019-05-29T06:03:27.982Z,50.36
2019-05-29T06:05:58.022Z,50.58
2019-05-29T06:08:28.230Z,50.58
2019-05-29T06:10:58.070Z,50.46
2019-05-29T06:13:27.899Z,50.21
2019-05-29T06:15:57.844Z,50.19
2019-05-29T06:18:28.706Z,49.84
2019-05-29T06:20:58.730Z,50.46
2019-05-29T06:23:29.411Z,51.02
2019-05-29T06:26:01.941Z,50.38
2019-05-29T06:28:33.031Z,50.38
2019-05-29T06:31:05.663Z,50.42
2019-05-29T06:33:35.921Z,49.76
2019-05-29T06:36:05.835Z,49.75
2019-05-29T06:38:37.629Z,50.09
2019-05-29T06:41:07.677Z,49.50
2019-05-29T06:43:37.872Z,49.50
2019-05-29T06:46:08.133Z,49.58
2019-05-29T06:48:46.145Z,50.08
2019-05-29T06:51:10.371Z,50.41
2019-05-29T06:53:41.835Z,50.62
2019-05-29T06:56:22.387Z,50.29
2019-05-29T06:58:52.513Z,50.36
2019-05-29T07:01:22.362Z,50.65
2019-05-29T07:04:10.614Z,50.15
2019-05-29T07:06:26.871Z,50.36
2019-05-29T07:08:57.164Z,50.47
2019-05-29T07:11:27.655Z,50.69
2019-05-29T07:13:57.277Z,50.67
2019-05-29T07:16:43.129Z,50.58
2019-05-29T07:21:30.549Z,50.88
2019-05-29T07:24:00.453Z,51.03
2019-05-29T07:26:30.553Z,50.95
2019-05-29T07:29:08.075Z,50.45
2019-05-29T07:31:34.304Z,50.71
2019-05-29T07:34:04.425Z,50.76
2019-05-29T07:36:34.099Z,51.05
2019-05-29T07:39:05.371Z,49.98
2019-05-29T07:41:35.196Z,46.39
2019-05-29T07:44:05.259Z,48.10
2019-05-29T07:46:35.270Z,47.55
2019-05-29T07:49:05.636Z,46.63
2019-05-29T07:51:35.808Z,46.03
2019-05-29T07:54:06.026Z,45.17
2019-05-29T07:56:36.069Z,46.78
2019-05-29T07:59:08.168Z,45.87
2019-05-29T08:01:38.637Z,44.94
2019-05-29T08:04:08.555Z,44.29
2019-05-29T08:06:46.238Z,46.57
2019-05-29T08:09:11.776Z,47.45
2019-05-29T08:11:45.544Z,46.95
2019-05-29T08:14:15.311Z,46.98
2019-05-29T08:16:46.014Z,47.51
2019-05-29T08:19:16.026Z,47.40
2019-05-29T08:21:48.493Z,47.30
2019-05-29T08:24:18.731Z,46.52
2019-05-29T08:26:49.014Z,46.09
2019-05-29T08:29:18.519Z,46.61
2019-05-29T08:31:48.960Z,45.83
2019-05-29T08:34:19.167Z,46.28
2019-05-29T08:37:05.994Z,45.88
2019-05-29T08:39:35.537Z,46.49
2019-05-29T08:42:18.232Z,47.54
2019-05-29T08:44:25.724Z,48.16
2019-05-29T08:47:08.983Z,47.38
2019-05-29T08:49:29.065Z,47.42
2019-05-29T08:52:11.068Z,46.71
2019-05-29T08:54:30.645Z,46.67
2019-05-29T08:57:01.689Z,46.69
2019-05-29T08:59:32.059Z,47.46
2019-05-29T09:02:01.764Z,48.02
2019-05-29T09:04:31.589Z,48.66
2019-05-29T09:07:03.562Z,47.72
2019-05-29T09:09:34.475Z,47.34
2019-05-29T09:12:05.189Z,48.50
2019-05-29T09:14:39.478Z,48.61
2019-05-29T09:17:09.835Z,46.63
2019-05-29T09:19:40.005Z,46.28
2019-05-29T09:22:10.609Z,45.49
2019-05-29T09:24:40.928Z,44.76
2019-05-29T09:27:12.762Z,44.03
2019-05-29T09:29:44.867Z,43.26
2019-05-29T09:32:15.356Z,42.15
2019-05-29T09:34:47.708Z,43.33
2019-05-29T09:37:20.476Z,44.11
2019-05-29T09:39:50.520Z,44.67
2019-05-29T09:42:21.619Z,44.18
2019-05-29T09:44:53.722Z,44.11
2019-05-29T09:47:26.404Z,43.84
2019-05-29T09:49:59.839Z,43.34
2019-05-29T09:52:30.932Z,43.15
2019-05-29T09:55:04.852Z,42.57
2019-05-29T09:57:35.276Z,42.75
2019-05-29T10:00:06.486Z,44.08
2019-05-29T10:02:36.382Z,43.38
2019-05-29T10:05:12.584Z,44.31
2019-05-29T10:07:42.336Z,43.86
2019-05-29T10:10:12.609Z,43.64
2019-05-29T10:12:43.913Z,43.41
2019-05-29T10:15:14.383Z,43.87
2019-05-29T10:17:45.540Z,43.51
2019-05-29T10:20:17.482Z,44.36
2019-05-29T10:22:47.344Z,43.63
2019-05-29T10:25:17.243Z,43.02
2019-05-29T10:27:47.349Z,42.10
2019-05-29T10:30:18.213Z,42.65
2019-05-29T10:32:48.285Z,43.08
2019-05-29T10:35:18.312Z,43.58
2019-05-29T10:37:48.708Z,43.22
2019-05-29T10:40:18.443Z,43.81
2019-05-29T10:42:49.132Z,43.53
2019-05-29T10:45:19.897Z,43.48
2019-05-29T10:47:52.346Z,43.62
2019-05-29T10:50:24.963Z,44.21
2019-05-29T10:52:55.264Z,44.07
2019-05-29T10:55:26.450Z,45.72
2019-05-29T10:57:57.579Z,46.76
2019-05-29T11:00:29.055Z,47.33
2019-05-29T11:03:00.792Z,46.59
2019-05-29T11:05:31.225Z,46.63
2019-05-29T11:08:00.962Z,46.50
2019-05-29T11:10:31.288Z,46.29
2019-05-29T11:13:01.050Z,46.32
2019-05-29T11:15:30.591Z,45.80
2019-05-29T11:18:00.664Z,45.70
2019-05-29T11:20:31.987Z,46.65
2019-05-29T11:23:01.778Z,46.41
2019-05-29T11:25:32.453Z,45.55
2019-05-29T11:28:03.011Z,44.93
2019-05-29T11:30:32.847Z,45.21
2019-05-29T11:33:05.269Z,44.99
2019-05-29T11:35:36.532Z,44.40
2019-05-29T11:38:07.191Z,44.33
2019-05-29T11:40:36.960Z,43.84
2019-05-29T11:43:06.774Z,44.30
2019-05-29T11:45:36.666Z,44.21
2019-05-29T11:48:07.236Z,44.69
2019-05-29T11:50:37.857Z,44.74
2019-05-29T11:53:08.836Z,44.17
2019-05-29T11:55:39.676Z,45.40
2019-05-29T11:58:10.726Z,45.12
2019-05-29T12:00:40.516Z,45.11
2019-05-29T12:03:10.774Z,44.91
2019-05-29T12:05:42.277Z,45.67
2019-05-29T12:08:12.374Z,46.52
2019-05-29T12:10:45.414Z,46.14
2019-05-29T12:13:15.305Z,45.50
2019-05-29T12:15:44.994Z,45.33
2019-05-29T12:18:23.499Z,45.93
2019-05-29T12:20:46.862Z,45.90
2019-05-29T12:23:25.991Z,45.82
2019-05-29T12:25:49.338Z,46.03
2019-05-29T12:28:19.659Z,45.40
2019-05-29T12:30:49.443Z,46.11
2019-05-29T12:33:19.244Z,46.06
2019-05-29T12:35:50.256Z,45.33
2019-05-29T12:38:21.102Z,45.33
2019-05-29T12:40:51.225Z,45.85
2019-05-29T12:43:27.362Z,45.51
2019-05-29T12:45:53.459Z,44.71
2019-05-29T12:48:23.324Z,44.34
2019-05-29T12:50:54.114Z,44.39
2019-05-29T12:53:30.334Z,44.40
2019-05-29T12:55:58.187Z,44.11
2019-05-29T12:58:28.406Z,44.28
2019-05-29T13:00:58.535Z,44.23
2019-05-29T13:03:28.467Z,43.93
2019-05-29T13:05:58.542Z,43.97
2019-05-29T13:08:28.292Z,44.32
2019-05-29T13:10:58.270Z,44.49
2019-05-29T13:13:28.335Z,44.66
2019-05-29T13:15:58.747Z,44.37
2019-05-29T13:18:28.362Z,44.02
2019-05-29T13:20:58.916Z,43.33
2019-05-29T13:23:43.996Z,43.93
2019-05-29T13:26:01.436Z,44.14
2019-05-29T13:28:31.253Z,43.98
2019-05-29T13:31:01.904Z,44.28
2019-05-29T13:33:31.784Z,45.21
2019-05-29T13:36:02.238Z,45.24
2019-05-29T13:38:32.154Z,44.70
2019-05-29T13:41:02.542Z,44.42
2019-05-29T13:43:32.290Z,44.45
2019-05-29T13:46:02.573Z,44.37
2019-05-29T13:48:32.295Z,44.71
2019-05-29T13:51:03.663Z,45.00
2019-05-29T13:53:33.886Z,45.74
2019-05-29T13:56:04.174Z,45.71
2019-05-29T13:58:34.215Z,44.31
2019-05-29T14:01:11.973Z,43.73
2019-05-29T14:03:42.331Z,44.26
2019-05-29T14:06:12.852Z,43.20
2019-05-29T14:08:42.439Z,43.89
2019-05-29T14:11:12.429Z,44.04
2019-05-29T14:13:42.163Z,43.86
2019-05-29T14:16:13.001Z,43.75
2019-05-29T14:18:43.378Z,43.41
2019-05-29T14:21:13.582Z,44.09
2019-05-29T14:23:43.932Z,44.85
2019-05-29T14:26:13.762Z,44.21
2019-05-29T14:28:43.515Z,43.87
2019-05-29T14:31:13.692Z,44.94
2019-05-29T14:33:43.532Z,44.86
2019-05-29T14:36:13.674Z,45.07
2019-05-29T14:38:44.547Z,44.83
2019-05-29T14:41:14.910Z,44.95
2019-05-29T14:43:45.196Z,44.91
2019-05-29T14:46:15.221Z,44.71
2019-05-29T14:48:46.308Z,45.18
2019-05-29T14:51:17.256Z,44.95
2019-05-29T14:53:47.350Z,45.23
2019-05-29T14:56:17.709Z,45.52
2019-05-29T14:58:48.472Z,45.13
2019-05-29T15:01:18.467Z,45.05
2019-05-29T15:03:48.676Z,44.37
2019-05-29T15:06:18.795Z,44.04
2019-05-29T15:08:49.015Z,44.24
2019-05-29T15:11:19.116Z,43.95
2019-05-29T15:13:49.419Z,43.98
2019-05-29T15:16:19.087Z,43.87
2019-05-29T15:18:49.036Z,44.26
2019-05-29T15:21:19.545Z,44.42
2019-05-29T15:23:49.295Z,45.07
2019-05-29T15:26:19.198Z,45.25
2019-05-29T15:28:49.417Z,45.00
2019-05-29T15:31:19.321Z,45.58
2019-05-29T15:33:49.042Z,45.61
2019-05-29T15:36:18.912Z,46.52
2019-05-29T15:38:48.772Z,46.05
2019-05-29T15:41:18.531Z,46.27
2019-05-29T15:43:49.462Z,46.97
2019-05-29T15:46:19.641Z,46.69
2019-05-29T15:48:50.324Z,46.60
2019-05-29T15:51:21.879Z,46.60
2019-05-29T15:53:52.712Z,45.91
2019-05-29T15:56:27.948Z,47.79
2019-05-29T15:58:54.366Z,48.49
2019-05-29T16:01:23.962Z,47.75
2019-05-29T16:03:53.943Z,47.39
2019-05-29T16:06:24.586Z,47.96
2019-05-29T16:08:54.511Z,47.87
2019-05-29T16:11:25.431Z,47.77
2019-05-29T16:13:56.144Z,47.51
2019-05-29T16:16:26.037Z,47.37
2019-05-29T16:18:56.052Z,47.23
2019-05-29T16:21:26.275Z,47.44
2019-05-29T16:23:56.465Z,47.83
2019-05-29T16:26:26.442Z,48.09
2019-05-29T16:28:56.759Z,47.56
2019-05-29T16:31:26.628Z,47.65
2019-05-29T16:33:56.259Z,47.79
2019-05-29T16:36:27.893Z,47.92
2019-05-29T16:38:57.878Z,47.36
2019-05-29T16:41:28.230Z,47.18
2019-05-29T16:43:58.206Z,46.91
2019-05-29T16:46:27.884Z,46.70
2019-05-29T16:48:57.609Z,46.50
2019-05-29T16:51:27.380Z,46.57
2019-05-29T16:53:57.647Z,46.16
2019-05-29T16:56:27.650Z,46.25
2019-05-29T16:58:57.691Z,46.14
2019-05-29T17:01:27.467Z,45.95
2019-05-29T17:03:57.449Z,45.99
2019-05-29T17:06:27.912Z,46.64
2019-05-29T17:08:58.129Z,46.56
2019-05-29T17:11:28.286Z,46.66
2019-05-29T17:13:58.457Z,46.43
2019-05-29T17:16:28.574Z,46.49
2019-05-29T17:19:03.040Z,46.23
2019-05-29T17:21:33.251Z,45.90
2019-05-29T17:24:03.292Z,46.00
2019-05-29T17:26:33.270Z,46.07
2019-05-29T17:29:03.320Z,46.50
2019-05-29T17:31:33.043Z,46.79
2019-05-29T17:34:02.738Z,46.83
2019-05-29T17:36:33.198Z,46.92
2019-05-29T17:39:03.434Z,46.88
2019-05-29T17:41:33.657Z,46.91
2019-05-29T17:44:04.128Z,47.31
2019-05-29T17:46:34.197Z,47.25
2019-05-29T17:49:04.521Z,47.66
2019-05-29T17:51:34.654Z,47.78
2019-05-29T17:54:04.881Z,47.96
2019-05-29T17:56:36.876Z,48.29
2019-05-29T17:59:07.022Z,48.50
2019-05-29T18:01:37.133Z,48.69
2019-05-29T18:04:06.907Z,48.97
2019-05-29T18:06:37.506Z,48.27
2019-05-29T18:09:08.894Z,48.60
2019-05-29T18:11:39.134Z,48.79
2019-05-29T18:14:08.833Z,49.31
2019-05-29T18:16:38.811Z,49.87
2019-05-29T18:19:08.684Z,50.10
2019-05-29T18:21:43.715Z,50.14
2019-05-29T18:26:52.709Z,51.31
2019-05-29T18:31:53.763Z,51.19
2019-05-29T18:34:25.220Z,50.88
2019-05-29T18:36:56.125Z,50.99
2019-05-29T18:39:26.322Z,51.65
2019-05-29T18:41:56.817Z,51.72
2019-05-29T18:44:26.977Z,53.06
2019-05-29T18:46:57.053Z,52.85
2019-05-29T18:49:26.842Z,52.63
2019-05-29T18:52:00.219Z,52.10
2019-05-29T18:54:30.044Z,52.09
2019-05-29T18:57:14.749Z,52.04
2019-05-29T18:59:33.322Z,51.75
2019-05-29T19:02:04.304Z,51.49
2019-05-29T19:07:10.493Z,51.49
2019-05-29T19:09:41.653Z,51.42
2019-05-29T19:12:12.807Z,51.47
2019-05-29T19:14:42.985Z,51.67
2019-05-29T19:17:12.763Z,51.83
2019-05-29T19:19:42.690Z,51.81
2019-05-29T19:22:13.121Z,51.98
2019-05-29T19:24:43.575Z,52.30
2019-05-29T19:27:27.978Z,52.63
2019-05-29T19:29:45.928Z,52.54
2019-05-29T19:32:17.469Z,52.47
2019-05-29T19:34:47.996Z,52.26
2019-05-29T19:37:18.067Z,52.46
2019-05-29T19:39:47.779Z,52.61
2019-05-29T19:42:17.617Z,52.78
2019-05-29T19:44:47.747Z,53.03
2019-05-29T19:47:17.469Z,53.35
2019-05-29T19:49:48.072Z,53.52
2019-05-29T19:52:19.195Z,53.58
2019-05-29T19:54:50.188Z,53.91
2019-05-29T19:57:20.586Z,54.16
2019-05-29T19:59:51.362Z,54.51
2019-05-29T20:02:22.861Z,54.45
2019-05-29T20:04:54.217Z,54.53
2019-05-29T20:07:25.466Z,54.65
2019-05-29T20:09:55.970Z,54.69
2019-05-29T20:12:25.959Z,54.79
2019-05-29T20:14:56.035Z,54.91
2019-05-29T20:17:27.929Z,55.14
2019-05-29T20:19:59.215Z,55.32
2019-05-29T20:22:30.536Z,55.52
2019-05-29T20:25:01.219Z,55.77
2019-05-29T20:27:32.084Z,55.70
2019-05-29T20:30:02.016Z,55.76
2019-05-29T20:32:32.927Z,55.75
2019-05-29T20:35:03.784Z,55.89
2019-05-29T20:37:36.685Z,55.94
2019-05-29T20:40:07.158Z,56.16
2019-05-29T20:42:39.151Z,56.43
2019-05-29T20:45:10.482Z,56.52
2019-05-29T20:47:41.954Z,56.66
2019-05-29T20:50:14.372Z,56.58
2019-05-29T20:52:45.242Z,56.73
2019-05-29T20:55:15.389Z,56.99
2019-05-29T20:57:44.987Z,57.29
2019-05-29T21:00:18.872Z,57.49
2019-05-29T21:02:49.333Z,57.70
2019-05-29T21:05:19.976Z,57.96
2019-05-29T21:07:50.113Z,58.22
2019-05-29T21:10:20.253Z,58.36
2019-05-29T21:12:50.563Z,58.59
2019-05-29T21:15:20.598Z,58.60
2019-05-29T21:17:50.438Z,58.81
2019-05-29T21:20:20.391Z,59.07
2019-05-29T21:22:50.183Z,59.28
2019-05-29T21:25:20.228Z,59.54
2019-05-29T21:27:50.007Z,59.78
2019-05-29T21:30:23.835Z,59.96
2019-05-29T21:32:54.096Z,60.28
2019-05-29T21:35:23.929Z,60.43
2019-05-29T21:37:53.783Z,60.54
2019-05-29T21:40:24.092Z,60.88
2019-05-29T21:42:53.888Z,60.93
2019-05-29T21:45:23.482Z,61.10
2019-05-29T21:47:53.440Z,61.29
2019-05-29T21:50:23.288Z,61.65
2019-05-29T21:52:53.060Z,61.65
2019-05-29T21:55:22.996Z,61.85
2019-05-29T21:57:54.637Z,62.05
2019-05-29T22:00:40.123Z,62.08
2019-05-29T22:03:10.468Z,62.29
2019-05-29T22:05:40.579Z,62.49
2019-05-29T22:08:10.438Z,62.84
2019-05-29T22:10:40.586Z,63.15
2019-05-29T22:13:10.822Z,63.31
2019-05-29T22:15:42.840Z,63.52
2019-05-29T22:18:13.120Z,63.90
2019-05-29T22:20:43.413Z,63.90
2019-05-29T22:23:17.435Z,64.03
2019-05-29T22:25:48.875Z,64.21
2019-05-29T22:28:19.754Z,64.24
2019-05-29T22:30:51.277Z,64.24
2019-05-29T22:33:22.403Z,64.57
2019-05-29T22:35:54.038Z,64.67
2019-05-29T22:38:24.294Z,64.93
2019-05-29T22:40:55.440Z,65.03
2019-05-29T22:43:25.635Z,65.19
2019-05-29T22:45:57.638Z,65.41
2019-05-29T22:48:27.623Z,65.50
2019-05-29T22:50:57.789Z,65.61
2019-05-29T22:53:28.172Z,65.81
2019-05-29T22:55:58.061Z,65.90
2019-05-29T22:58:27.975Z,66.12
2019-05-29T23:00:58.705Z,66.06
2019-05-29T23:03:28.548Z,66.29
2019-05-29T23:05:58.619Z,66.14
2019-05-29T23:08:29.520Z,66.16
2019-05-29T23:11:03.242Z,66.31
2019-05-29T23:13:34.247Z,66.26
2019-05-29T23:16:04.410Z,66.26
2019-05-29T23:18:34.467Z,66.29
2019-05-29T23:21:04.442Z,66.53
2019-05-29T23:23:34.336Z,66.50
2019-05-29T23:26:04.511Z,66.39
2019-05-29T23:28:34.265Z,66.40
2019-05-29T23:31:05.041Z,66.47
2019-05-29T23:33:35.246Z,66.52
2019-05-29T23:36:05.149Z,66.29
2019-05-29T23:38:37.015Z,66.29
2019-05-29T23:41:06.752Z,66.45
2019-05-29T23:43:36.305Z,66.44
2019-05-29T23:46:06.346Z,66.52
2019-05-29T23:48:36.074Z,66.41
2019-05-29T23:51:06.555Z,66.35
2019-05-29T23:53:36.788Z,66.32
2019-05-29T23:56:06.507Z,66.44
2019-05-29T23:58:36.344Z,66.40
